首页
METAR-TAF:

METAR-TAF

机场 :

Pope Air Force Base

費耶特維爾 / Pope, 北卡罗来纳州, 美国

纬度: 35-10N, 经度: 079-02W, 海拔: 61米

当前天气观测

该预报发布于9分钟前的05:56 UTC
风速5节,风向东转东南
温度 22°C
湿度 88%
气压 1019 hPa
能見度: 16.1公里
多云层高于2600英尺
阴天层高于3400英尺

METAR: KPOB 250556Z AUTO 12005KT 10SM BKN026 OVC034 22/20 A3009 RMK AO2 SLP190 60006 T02210204 10250 20219 58012 $

时间: 02:05 (06:05 UTC)

预报

该预报发布于5小时和5分钟前的01:00 UTC
预报有效从25日的 01点(UTC)到 26日的 07点(UTC)
风速9节,风向
能見度: 9000
多云层高于2500英尺
小阵雨
短暂存在
从 25日的 02点(UTC)到 25日的 04点(UTC)
风速20节,风向多变,有时为30节阵风
能見度: 8000
多云层高于2000英尺, 积雨云.
阴天层高于4000英尺
雷暴, 小雨
成为
从 25日的 04点(UTC)到 25日的 05点(UTC)
风速6节,风向东转东南
能見度: 8000
多云层高于1500英尺
小阵雨
成为
从 25日的 07点(UTC)到 25日的 08点(UTC)
风速6节,风向多变
能見度: 8000
阴天层高于1000英尺
小阵雨
成为
从 25日的 08点(UTC)到 25日的 09点(UTC)
风速6节,风向多变
能見度: 8000
阴天层高于500英尺
轻雾
成为
从 25日的 18点(UTC)到 25日的 19点(UTC)
风速6节,风向多变
能見度: 8000
阴天层高于1000英尺
轻雾

TAF: KPOB 250100Z 2501/2607 10009KT 9000 -SHRA BKN025 QNH3004INS TEMPO 2502/2504 VRB20G30KT 8000 -TSRA BKN020CB OVC040 BECMG 2504/2505 12006KT 8000 -SHRA BKN015 QNH3012INS BECMG 2507/2508 VRB06KT 8000 -SHRA OVC010 QNH3011INS BECMG 2508/2509 VRB06KT 8000 BR OVC005 QNH3011INS BECMG 2518/2519 VRB06KT 8000 BR OVC010 QNH3012INS TX31/2518Z TN17/2512Z

超过4000个机场的气象观测和天气预报(METAR&TAF报告)。

可查询的气象台以黄色和红色小点在地图上表示。

将鼠标移到小点上方,可查看气象台名称。

然后点击查看天气观测和预报。

如需切换地图:点击带黑十字的绿色按钮放大地图;点击带横线的绿色按钮缩小地图;或者点击绿色箭头查看邻近地区的地图。


METAR-TAF: